Time;durP1;ratioP1;P1;durP2;ratioP2;P2;SDS_P1;SDS_P2;PMS_P1;PMS_P2;Temp;Humidity;BMP_temperature;BMP_pressure;BME280_temperature;BME280_humidity;BME280_pressure;Samples;Min_cycle;Max_cycle;Signal;HPM_P1;HPM_P2
2022/10/08 00:02:39;;;;;;;37.00;27.33;;;8.30;99.90;;;;;;6019909;22;20186;-89
2022/10/08 00:38:18;;;;;;;34.43;26.47;;;8.30;99.90;;;;;;4954335;28;20352;-85
2022/10/08 01:03:03;;;;;;;38.07;27.10;;;8.10;99.90;;;;;;4918317;28;20228;-85
2022/10/08 01:28:30;;;;;;;37.97;27.47;;;9.10;99.90;;;;;;4945310;28;20498;-87
2022/10/08 01:53:57;;;;;;;32.13;25.30;;;9.40;99.90;;;;;;4842261;29;20289;-87
2022/10/08 02:14:00;;;;;;;27.97;22.93;;;9.20;99.90;;;;;;4774336;29;20775;-84
2022/10/08 03:05:07;;;;;;;26.80;20.77;;;9.40;99.90;;;;;;4723950;29;20768;-87
2022/10/08 03:35:35;;;;;;;28.83;22.07;;;8.30;99.90;;;;;;4756498;29;20202;-88
2022/10/08 03:55:37;;;;;;;48.43;38.77;;;8.50;99.90;;;;;;4440466;31;20645;-86
2022/10/08 04:56:10;;;;;;;33.50;24.93;;;9.50;99.90;;;;;;4720880;29;20235;-86
2022/10/08 05:21:40;;;;;;;28.37;23.17;;;10.30;99.90;;;;;;4594991;30;20603;-86
2022/10/08 05:47:19;;;;;;;28.00;24.03;;;10.00;99.90;;;;;;4615126;29;20521;-84
2022/10/08 06:12:53;;;;;;;31.97;26.33;;;10.80;99.90;;;;;;4597917;30;20304;-87
2022/10/08 06:53:28;;;;;;;21.73;18.50;;;13.50;99.90;;;;;;4705985;29;20369;-85
2022/10/08 07:18:46;;;;;;;17.87;16.03;;;14.60;99.90;;;;;;4647457;30;21076;-86
2022/10/08 07:38:56;;;;;;;17.90;16.10;;;15.10;99.60;;;;;;4575492;30;20248;-87
2022/10/08 08:04:30;;;;;;;16.87;15.27;;;15.70;98.30;;;;;;4600122;30;20316;-85
2022/10/08 08:29:07;;;;;;;18.40;14.47;;;16.80;94.60;;;;;;4739160;29;20646;-87
2022/10/08 08:50:03;;;;;;;12.67;11.47;;;17.50;92.80;;;;;;4563748;30;20272;-87
2022/10/08 09:15:16;;;;;;;13.77;12.47;;;17.70;91.50;;;;;;4504635;31;20672;-87
2022/10/08 09:45:50;;;;;;;12.67;11.33;;;18.40;90.70;;;;;;4665082;30;20244;-88
2022/10/08 10:21:14;;;;;;;12.70;11.50;;;19.90;89.00;;;;;;4666540;29;21035;-83
2022/10/08 11:26:55;;;;;;;16.20;12.67;;;19.00;90.50;;;;;;4836898;29;20248;-87
2022/10/08 11:51:49;;;;;;;14.80;13.20;;;19.50;89.90;;;;;;4651480;30;20381;-89
2022/10/08 12:27:29;;;;;;;15.43;13.93;;;19.80;89.60;;;;;;4636977;30;20227;-87
2022/10/08 12:48:10;;;;;;;16.05;14.07;;;19.70;89.70;;;;;;4717234;29;20275;-86
2022/10/08 13:18:00;;;;;;;17.10;15.48;;;20.20;88.40;;;;;;4508415;30;20833;-87
2022/10/08 13:39:00;;;;;;;14.27;12.98;;;20.00;88.50;;;;;;4568374;30;20210;-87
2022/10/08 13:43:19;;;;;;;15.38;12.75;;;20.10;88.00;;;;;;4582455;30;20542;-87
2022/10/08 14:14:01;;;;;;;19.57;14.93;;;19.40;90.40;;;;;;5806509;23;20310;-90
2022/10/08 14:34:57;;;;;;;18.53;15.83;;;19.10;92.10;;;;;;4666609;30;20252;-89
2022/10/08 14:39:10;;;;;;;17.40;15.60;;;19.20;91.70;;;;;;4610369;30;20242;-88
2022/10/08 14:59:40;;;;;;;14.70;12.23;;;18.90;90.90;;;;;;4545590;30;20788;-85
2022/10/08 15:20:20;;;;;;;15.93;14.23;;;18.40;92.20;;;;;;4753228;29;20232;-86
2022/10/08 15:45:31;;;;;;;19.70;17.80;;;17.70;96.10;;;;;;4711938;30;20256;-87
2022/10/08 16:10:24;;;;;;;23.60;19.63;;;17.40;97.80;;;;;;4611254;30;20652;-86
2022/10/08 16:36:38;;;;;;;34.13;27.47;;;17.10;99.90;;;;;;4584638;30;20212;-89
2022/10/08 16:40:48;;;;;;;25.30;22.60;;;16.90;99.90;;;;;;4576348;30;20333;-87
2022/10/08 16:56:23;;;;;;;29.93;24.80;;;15.70;99.90;;;;;;4521386;30;20687;-87
2022/10/08 17:22:09;;;;;;;31.43;27.20;;;15.30;99.90;;;;;;4622297;30;20843;-85
2022/10/08 17:26:28;;;;;;;34.17;27.77;;;15.30;99.90;;;;;;4620112;30;20475;-88
2022/10/08 17:42:17;;;;;;;34.87;29.57;;;15.20;99.90;;;;;;4654865;30;20218;-88
2022/10/08 18:07:21;;;;;;;44.17;34.20;;;15.10;99.90;;;;;;4584132;30;20244;-88
2022/10/08 18:32:53;;;;;;;43.87;35.10;;;14.80;99.90;;;;;;4561221;30;20229;-89
2022/10/08 18:52:59;;;;;;;52.17;36.30;;;14.30;99.90;;;;;;4565443;31;21161;-89
2022/10/08 19:23:12;;;;;;;45.80;32.30;;;13.80;99.90;;;;;;4784375;23;20210;-88
2022/10/08 19:28:35;;;;;;;44.50;32.13;;;13.70;99.90;;;;;;5834199;23;21576;-86
2022/10/08 20:53:59;;;;;;;32.37;23.83;;;12.70;99.90;;;;;;4840654;29;20214;-88
